createdAt,value
2022-11-12T00:01:11.558Z,11.02
2022-11-12T00:03:39.380Z,10.98
2022-11-12T00:06:07.397Z,10.97
2022-11-12T00:08:36.792Z,10.91
2022-11-12T00:11:04.981Z,10.93
2022-11-12T00:13:32.935Z,10.92
2022-11-12T00:16:00.734Z,10.91
2022-11-12T00:18:28.891Z,10.90
2022-11-12T00:20:57.325Z,11.02
2022-11-12T00:23:24.964Z,11.11
2022-11-12T00:26:00.877Z,11.08
2022-11-12T00:28:32.210Z,11.03
2022-11-12T00:31:08.400Z,11.01
2022-11-12T00:33:36.065Z,10.97
2022-11-12T00:36:03.873Z,10.95
2022-11-12T00:38:32.176Z,10.93
2022-11-12T00:41:01.810Z,10.90
2022-11-12T00:43:30.125Z,10.83
2022-11-12T00:45:57.764Z,10.80
2022-11-12T00:48:25.778Z,10.76
2022-11-12T00:51:00.526Z,10.74
2022-11-12T00:53:28.171Z,10.66
2022-11-12T00:56:02.899Z,10.65
2022-11-12T00:58:31.300Z,10.60
2022-11-12T01:00:59.175Z,10.58
2022-11-12T01:03:28.916Z,10.54
2022-11-12T01:06:02.796Z,10.57
2022-11-12T01:08:30.861Z,10.55
2022-11-12T01:11:07.747Z,10.54
2022-11-12T01:13:39.977Z,10.49
2022-11-12T01:16:13.056Z,10.44
2022-11-12T01:18:41.326Z,10.41
2022-11-12T01:21:09.670Z,10.41
2022-11-12T01:23:41.142Z,10.32
2022-11-12T01:26:11.855Z,10.31
2022-11-12T01:28:39.827Z,10.30
2022-11-12T01:31:12.721Z,10.27
2022-11-12T01:33:40.680Z,10.11
2022-11-12T01:36:09.148Z,10.05
2022-11-12T01:38:37.351Z,10.04
2022-11-12T01:41:06.242Z,10.07
2022-11-12T01:43:35.526Z,10.08
2022-11-12T01:46:07.156Z,10.10
2022-11-12T01:48:38.360Z,10.11
2022-11-12T01:51:08.457Z,10.13
2022-11-12T01:53:41.516Z,10.13
2022-11-12T01:56:09.630Z,10.15
2022-11-12T01:58:40.148Z,10.17
2022-11-12T02:01:08.088Z,10.12
2022-11-12T02:03:35.798Z,10.15
2022-11-12T02:06:07.536Z,10.21
2022-11-12T02:08:38.355Z,10.16
2022-11-12T02:11:13.877Z,10.17
2022-11-12T02:13:58.457Z,10.15
2022-11-12T02:16:27.818Z,10.12
2022-11-12T02:18:55.523Z,10.16
2022-11-12T02:21:25.256Z,10.12
2022-11-12T02:24:01.194Z,10.09
2022-11-12T02:26:32.596Z,10.09
2022-11-12T02:29:00.390Z,10.10
2022-11-12T02:31:28.166Z,10.10
2022-11-12T02:33:56.306Z,10.06
2022-11-12T02:36:25.914Z,10.07
2022-11-12T02:38:53.789Z,10.02
2022-11-12T02:41:21.433Z,10.00
2022-11-12T02:43:49.109Z,10.00
2022-11-12T02:46:17.022Z,10.02
2022-11-12T02:48:45.620Z,10.00
2022-11-12T02:51:13.559Z,10.03
2022-11-12T02:53:42.573Z,10.03
2022-11-12T02:56:10.239Z,10.04
2022-11-12T02:58:37.889Z,10.03
2022-11-12T03:01:05.873Z,10.07
2022-11-12T03:03:33.601Z,10.03
2022-11-12T03:06:02.603Z,9.99
2022-11-12T03:08:30.563Z,10.04
2022-11-12T03:10:59.728Z,10.06
2022-11-12T03:13:27.394Z,10.04
2022-11-12T03:16:00.459Z,10.00
2022-11-12T03:18:28.587Z,10.00
2022-11-12T03:20:56.518Z,10.02
2022-11-12T03:23:24.523Z,10.00
2022-11-12T03:25:52.152Z,10.03
2022-11-12T03:28:21.177Z,10.03
2022-11-12T03:30:49.011Z,9.99
2022-11-12T03:33:17.486Z,10.03
2022-11-12T03:35:46.201Z,10.01
2022-11-12T03:38:13.859Z,9.86
2022-11-12T03:40:41.576Z,9.80
2022-11-12T03:43:09.918Z,9.73
2022-11-12T03:45:39.028Z,9.68
2022-11-12T03:48:07.204Z,9.73
2022-11-12T03:50:34.925Z,9.69
2022-11-12T03:53:02.703Z,9.67
2022-11-12T03:55:31.273Z,9.64
2022-11-12T03:57:59.471Z,9.63
2022-11-12T04:00:29.788Z,9.67
2022-11-12T04:02:59.186Z,9.70
2022-11-12T04:05:45.308Z,9.65
2022-11-12T04:08:33.481Z,9.59
2022-11-12T04:11:01.670Z,9.54
2022-11-12T04:13:28.778Z,9.57
2022-11-12T04:16:16.801Z,9.54
2022-11-12T04:19:04.864Z,9.57
2022-11-12T04:21:55.433Z,9.54
2022-11-12T04:24:43.874Z,9.47
2022-11-12T04:27:13.704Z,9.48
2022-11-12T04:29:59.587Z,9.53
2022-11-12T04:32:27.624Z,9.46
2022-11-12T04:34:57.164Z,9.48
2022-11-12T04:37:27.124Z,9.47
2022-11-12T04:39:54.788Z,9.48
2022-11-12T04:42:40.179Z,9.48
2022-11-12T04:45:09.624Z,9.48
2022-11-12T04:47:39.785Z,9.45
2022-11-12T04:50:14.592Z,9.41
2022-11-12T04:52:42.451Z,9.35
2022-11-12T04:55:11.654Z,9.33
2022-11-12T04:57:40.005Z,9.28
2022-11-12T05:00:09.136Z,9.30
2022-11-12T05:02:36.795Z,9.33
2022-11-12T05:05:04.796Z,9.29
2022-11-12T05:07:34.538Z,9.35
2022-11-12T05:10:02.276Z,9.35
2022-11-12T05:12:30.005Z,9.34
2022-11-12T05:14:57.672Z,9.34
2022-11-12T05:17:25.424Z,9.34
2022-11-12T05:19:53.083Z,9.27
2022-11-12T05:22:42.731Z,9.31
2022-11-12T05:25:10.685Z,9.31
2022-11-12T05:27:38.449Z,9.29
2022-11-12T05:30:07.791Z,9.33
2022-11-12T05:32:35.408Z,9.34
2022-11-12T05:35:03.043Z,9.28
2022-11-12T05:37:30.821Z,9.26
2022-11-12T05:39:58.441Z,9.26
2022-11-12T05:42:27.552Z,9.24
2022-11-12T05:44:55.292Z,9.23
2022-11-12T05:47:22.943Z,9.09
2022-11-12T05:49:50.563Z,9.10
2022-11-12T05:52:18.172Z,9.15
2022-11-12T05:54:45.824Z,9.16
2022-11-12T05:57:13.434Z,9.08
2022-11-12T05:59:42.425Z,9.08
2022-11-12T06:02:10.137Z,9.09
2022-11-12T06:04:38.098Z,9.10
2022-11-12T06:07:05.873Z,9.06
2022-11-12T06:09:33.548Z,9.01
2022-11-12T06:12:02.370Z,9.03
2022-11-12T06:14:30.081Z,9.03
2022-11-12T06:16:59.073Z,9.02
2022-11-12T06:19:26.738Z,9.03
2022-11-12T06:21:54.394Z,9.02
2022-11-12T06:24:22.084Z,9.06
2022-11-12T06:26:49.917Z,9.03
2022-11-12T06:29:17.611Z,9.00
2022-11-12T06:31:45.393Z,8.99
2022-11-12T06:34:14.761Z,8.99
2022-11-12T06:36:42.455Z,9.00
2022-11-12T06:39:11.579Z,9.01
2022-11-12T06:41:39.259Z,9.00
2022-11-12T06:44:07.412Z,8.93
2022-11-12T06:46:35.416Z,8.84
2022-11-12T06:49:03.323Z,8.84
2022-11-12T06:51:32.361Z,8.81
2022-11-12T06:54:00.027Z,8.79
2022-11-12T06:56:27.768Z,8.81
2022-11-12T06:58:55.435Z,8.77
2022-11-12T07:01:25.910Z,8.83
2022-11-12T07:03:54.874Z,8.90
2022-11-12T07:06:23.576Z,8.93
2022-11-12T07:08:52.779Z,8.83
2022-11-12T07:11:21.181Z,8.83
2022-11-12T07:13:49.327Z,8.79
2022-11-12T07:16:19.305Z,8.81
2022-11-12T07:18:47.785Z,8.88
2022-11-12T07:21:18.603Z,8.90
2022-11-12T07:23:46.998Z,8.86
2022-11-12T07:26:17.886Z,8.92
2022-11-12T07:28:45.614Z,8.91
2022-11-12T07:31:14.879Z,8.96
2022-11-12T07:33:43.276Z,9.03
2022-11-12T07:36:12.974Z,9.08
2022-11-12T07:38:42.406Z,9.13
2022-11-12T07:41:14.148Z,9.17
2022-11-12T07:43:44.667Z,9.18
2022-11-12T07:46:14.939Z,9.24
2022-11-12T07:48:44.456Z,9.27
2022-11-12T07:51:15.090Z,9.26
2022-11-12T07:53:45.058Z,9.35
2022-11-12T07:56:17.806Z,9.45
2022-11-12T07:58:50.414Z,9.56
2022-11-12T08:01:31.195Z,9.64
2022-11-12T08:03:59.738Z,9.73
2022-11-12T08:06:28.690Z,9.80
2022-11-12T08:08:57.795Z,9.86
2022-11-12T08:11:25.866Z,9.89
2022-11-12T08:13:54.925Z,9.95
2022-11-12T08:16:22.636Z,9.98
2022-11-12T08:18:50.315Z,10.07
2022-11-12T08:21:19.316Z,10.07
2022-11-12T08:23:48.365Z,10.09
2022-11-12T08:26:18.513Z,10.21
2022-11-12T08:28:46.406Z,10.25
2022-11-12T08:31:17.555Z,10.30
2022-11-12T08:33:45.333Z,10.41
2022-11-12T08:36:15.240Z,10.51
2022-11-12T08:38:43.071Z,10.48
2022-11-12T08:41:12.428Z,10.50
2022-11-12T08:43:41.618Z,10.59
2022-11-12T08:46:09.581Z,10.62
2022-11-12T08:48:39.898Z,10.67
2022-11-12T08:51:08.155Z,10.66
2022-11-12T08:53:36.011Z,10.70
2022-11-12T08:56:04.104Z,10.77
2022-11-12T08:58:31.967Z,10.84
2022-11-12T09:01:05.739Z,10.88
2022-11-12T09:03:33.550Z,10.92
2022-11-12T09:06:06.105Z,10.93
2022-11-12T09:08:35.886Z,10.93
2022-11-12T09:11:03.805Z,11.00
2022-11-12T09:13:31.629Z,11.08
2022-11-12T09:16:04.089Z,11.13
2022-11-12T09:18:33.145Z,11.18
2022-11-12T09:21:02.700Z,11.21
2022-11-12T09:23:32.399Z,11.25
2022-11-12T09:26:00.109Z,11.23
2022-11-12T09:28:28.703Z,11.22
2022-11-12T09:30:57.054Z,11.21
2022-11-12T09:33:28.138Z,11.25
2022-11-12T09:35:56.495Z,11.28
2022-11-12T09:38:24.403Z,11.38
2022-11-12T09:41:17.028Z,11.49
2022-11-12T09:43:50.299Z,11.52
2022-11-12T09:46:30.326Z,11.58
2022-11-12T09:49:06.273Z,11.64
2022-11-12T09:51:37.122Z,11.57
2022-11-12T09:54:13.496Z,11.63
2022-11-12T09:56:42.583Z,11.65
2022-11-12T09:59:13.441Z,11.69
2022-11-12T10:01:53.643Z,11.79
2022-11-12T10:04:37.956Z,11.86
2022-11-12T10:07:13.746Z,11.87
2022-11-12T10:09:52.132Z,11.86
2022-11-12T10:12:32.635Z,11.80
2022-11-12T10:15:50.416Z,11.81
2022-11-12T10:18:30.205Z,11.80
2022-11-12T10:21:02.744Z,11.81
2022-11-12T10:23:36.123Z,11.73
2022-11-12T10:26:13.123Z,11.75
2022-11-12T10:28:46.813Z,11.74
2022-11-12T10:31:16.249Z,11.78
2022-11-12T10:33:43.992Z,11.80
2022-11-12T10:36:23.072Z,11.83
2022-11-12T10:38:53.756Z,11.86
2022-11-12T10:41:25.368Z,11.87
2022-11-12T10:44:00.229Z,11.91
2022-11-12T10:46:30.910Z,11.99
2022-11-12T10:49:02.173Z,12.06
2022-11-12T10:51:33.238Z,12.11
2022-11-12T10:54:19.647Z,12.13
2022-11-12T10:56:54.966Z,12.19
2022-11-12T10:59:26.015Z,12.24
2022-11-12T11:01:58.971Z,12.25
2022-11-12T11:04:31.941Z,12.28
2022-11-12T11:07:03.578Z,12.34
2022-11-12T11:09:32.004Z,12.37
2022-11-12T11:12:02.935Z,12.39
2022-11-12T11:14:38.005Z,12.39
2022-11-12T11:17:09.144Z,12.37
2022-11-12T11:19:40.404Z,12.39
2022-11-12T11:22:20.083Z,12.40
2022-11-12T11:24:58.511Z,12.44
2022-11-12T11:27:33.236Z,12.54
2022-11-12T11:30:13.074Z,12.64
2022-11-12T11:33:00.856Z,12.71
2022-11-12T11:35:38.105Z,12.68
2022-11-12T11:38:33.132Z,12.65
2022-11-12T11:41:13.831Z,12.60
2022-11-12T11:43:54.830Z,12.61
2022-11-12T11:46:40.348Z,12.60
2022-11-12T11:49:34.875Z,12.65
2022-11-12T11:52:13.042Z,12.68
2022-11-12T11:55:05.865Z,12.73
2022-11-12T11:57:43.695Z,12.77
2022-11-12T12:00:16.465Z,12.79
2022-11-12T12:03:05.218Z,12.84
2022-11-12T12:05:43.556Z,12.87
2022-11-12T12:08:17.380Z,12.93
2022-11-12T12:11:11.509Z,12.94
2022-11-12T12:13:54.220Z,12.97
2022-11-12T12:16:36.343Z,12.98
2022-11-12T12:19:13.368Z,13.01
2022-11-12T12:21:46.033Z,13.00
2022-11-12T12:24:19.776Z,12.98
2022-11-12T12:26:51.867Z,13.03
2022-11-12T12:29:27.023Z,13.05
2022-11-12T12:32:02.765Z,13.05
2022-11-12T12:34:34.518Z,13.00
2022-11-12T12:37:07.900Z,13.01
2022-11-12T12:39:47.633Z,13.03
2022-11-12T12:42:22.332Z,13.07
2022-11-12T12:45:04.703Z,13.08
2022-11-12T12:47:39.349Z,13.08
2022-11-12T12:50:14.785Z,13.10
2022-11-12T12:53:02.794Z,13.11
2022-11-12T12:55:41.366Z,13.10
2022-11-12T12:58:22.896Z,13.10
2022-11-12T13:00:54.781Z,13.10
2022-11-12T13:03:50.651Z,13.07
2022-11-12T13:06:27.452Z,13.06
2022-11-12T13:08:59.392Z,13.08
2022-11-12T13:12:12.391Z,13.07
2022-11-12T13:14:54.378Z,13.08
2022-11-12T13:17:44.636Z,13.09
2022-11-12T13:20:37.874Z,13.07
2022-11-12T13:24:05.100Z,13.05
2022-11-12T13:26:51.862Z,12.99
2022-11-12T13:29:41.076Z,12.95
2022-11-12T13:32:30.673Z,12.94
2022-11-12T13:35:22.249Z,12.94
2022-11-12T13:37:53.071Z,12.96
2022-11-12T13:40:33.586Z,12.92
2022-11-12T13:43:10.913Z,12.92
2022-11-12T13:45:46.558Z,12.91
2022-11-12T13:48:20.315Z,12.92
2022-11-12T13:50:53.039Z,12.94
2022-11-12T13:53:24.257Z,12.91
2022-11-12T13:55:54.739Z,12.83
2022-11-12T13:58:29.373Z,12.86
2022-11-12T14:00:58.743Z,12.86
2022-11-12T14:03:30.286Z,12.85
2022-11-12T14:06:06.598Z,12.86
2022-11-12T14:08:52.822Z,12.83
2022-11-12T14:11:44.583Z,12.85
2022-11-12T14:14:22.277Z,12.86
2022-11-12T14:17:04.357Z,12.85
2022-11-12T14:20:08.748Z,12.83
2022-11-12T14:22:41.321Z,12.80
2022-11-12T14:25:17.277Z,12.82
2022-11-12T14:27:48.432Z,12.82
2022-11-12T14:30:20.682Z,12.83
2022-11-12T14:32:50.999Z,12.80
2022-11-12T14:35:28.859Z,12.79
2022-11-12T14:38:00.459Z,12.76
2022-11-12T14:40:30.791Z,12.75
2022-11-12T14:42:59.871Z,12.75
2022-11-12T14:45:31.193Z,12.75
2022-11-12T14:48:01.948Z,12.75
2022-11-12T14:50:39.036Z,12.74
2022-11-12T14:53:14.449Z,12.76
2022-11-12T14:55:48.581Z,12.76
2022-11-12T14:58:19.761Z,12.73
2022-11-12T15:00:49.891Z,12.72
2022-11-12T15:03:21.639Z,12.72
2022-11-12T15:05:58.071Z,12.72
2022-11-12T15:08:34.143Z,12.69
2022-11-12T15:11:21.728Z,12.69
2022-11-12T15:13:53.905Z,12.66
2022-11-12T15:16:27.052Z,12.63
2022-11-12T15:19:05.924Z,12.62
2022-11-12T15:21:34.230Z,12.62
2022-11-12T15:24:07.443Z,12.61
2022-11-12T15:26:36.996Z,12.56
2022-11-12T15:29:20.131Z,12.48
2022-11-12T15:31:49.837Z,12.45
2022-11-12T15:34:28.849Z,12.46
2022-11-12T15:36:57.562Z,12.49
2022-11-12T15:39:26.623Z,12.44
2022-11-12T15:41:59.736Z,12.42
2022-11-12T15:44:33.209Z,12.39
2022-11-12T15:47:02.558Z,12.37
2022-11-12T15:49:30.278Z,12.32
2022-11-12T15:51:57.945Z,12.31
2022-11-12T15:54:25.618Z,12.29
2022-11-12T15:56:53.744Z,12.24
2022-11-12T15:59:21.405Z,12.24
2022-11-12T16:01:50.464Z,12.23
2022-11-12T16:04:18.157Z,12.22
2022-11-12T16:06:45.911Z,12.17
2022-11-12T16:09:13.614Z,12.07
2022-11-12T16:11:41.636Z,11.90
2022-11-12T16:14:13.805Z,11.87
2022-11-12T16:16:41.513Z,11.91
2022-11-12T16:19:16.606Z,11.94
2022-11-12T16:21:44.420Z,11.87
2022-11-12T16:24:12.990Z,11.70
2022-11-12T16:26:41.588Z,11.65
2022-11-12T16:29:12.995Z,11.69
2022-11-12T16:31:42.800Z,11.71
2022-11-12T16:34:10.797Z,11.71
2022-11-12T16:36:40.952Z,11.68
2022-11-12T16:39:11.637Z,11.60
2022-11-12T16:41:41.817Z,11.64
2022-11-12T16:44:09.660Z,11.66
2022-11-12T16:46:40.460Z,11.68
2022-11-12T16:49:12.801Z,11.66
2022-11-12T16:51:42.229Z,11.65
2022-11-12T16:54:10.001Z,11.64
2022-11-12T16:56:38.352Z,11.63
2022-11-12T16:59:06.221Z,11.59
2022-11-12T17:01:34.913Z,11.56
2022-11-12T17:04:02.751Z,11.48
2022-11-12T17:06:36.456Z,11.49
2022-11-12T17:09:06.428Z,11.50
2022-11-12T17:11:35.613Z,11.46
2022-11-12T17:14:05.532Z,11.48
2022-11-12T17:16:33.559Z,11.46
2022-11-12T17:19:02.335Z,11.43
2022-11-12T17:21:30.960Z,11.43
2022-11-12T17:23:58.969Z,11.38
2022-11-12T17:26:28.267Z,11.36
2022-11-12T17:29:02.261Z,11.30
2022-11-12T17:31:33.006Z,11.25
2022-11-12T17:34:00.814Z,11.25
2022-11-12T17:36:29.161Z,11.24
2022-11-12T17:38:59.544Z,11.24
2022-11-12T17:41:29.557Z,11.27
2022-11-12T17:43:58.077Z,11.22
2022-11-12T17:46:26.321Z,11.21
2022-11-12T17:48:56.456Z,11.21
2022-11-12T17:51:26.104Z,11.19
2022-11-12T17:53:54.163Z,11.17
2022-11-12T17:56:23.233Z,11.20
2022-11-12T17:58:53.360Z,11.16
2022-11-12T18:01:23.271Z,11.11
2022-11-12T18:03:53.008Z,11.10
2022-11-12T18:06:23.079Z,11.09
2022-11-12T18:08:57.112Z,11.02
2022-11-12T18:11:26.716Z,10.96
2022-11-12T18:13:56.525Z,10.97
2022-11-12T18:16:26.246Z,10.96
2022-11-12T18:18:55.154Z,11.00
2022-11-12T18:21:24.090Z,10.95
2022-11-12T18:23:52.230Z,10.96
2022-11-12T18:26:20.854Z,10.98
2022-11-12T18:28:52.045Z,10.98
2022-11-12T18:31:22.026Z,10.93
2022-11-12T18:33:50.853Z,10.84
2022-11-12T18:36:24.033Z,10.77
2022-11-12T18:38:52.500Z,10.60
2022-11-12T18:41:25.393Z,10.65
2022-11-12T18:43:53.719Z,10.69
2022-11-12T18:46:23.649Z,10.70
2022-11-12T18:48:52.271Z,10.69
2022-11-12T18:51:21.435Z,10.64
2022-11-12T18:53:49.874Z,10.62
2022-11-12T18:56:19.404Z,10.66
2022-11-12T18:58:47.917Z,10.66
2022-11-12T19:01:17.713Z,10.65
2022-11-12T19:03:47.382Z,10.57
2022-11-12T19:06:15.510Z,10.56
2022-11-12T19:08:43.903Z,10.43
2022-11-12T19:11:13.537Z,10.35
2022-11-12T19:13:41.817Z,10.39
2022-11-12T19:16:11.871Z,10.38
2022-11-12T19:18:40.861Z,10.23
2022-11-12T19:21:12.524Z,10.04
2022-11-12T19:23:41.234Z,10.00
2022-11-12T19:26:12.181Z,9.97
2022-11-12T19:28:40.976Z,10.04
2022-11-12T19:31:11.669Z,10.11
2022-11-12T19:33:39.796Z,10.16
2022-11-12T19:36:11.361Z,10.11
2022-11-12T19:38:39.473Z,10.04
2022-11-12T19:41:08.739Z,10.06
2022-11-12T19:43:36.828Z,9.98
2022-11-12T19:46:07.450Z,9.92
2022-11-12T19:48:37.064Z,9.82
2022-11-12T19:51:06.774Z,9.86
2022-11-12T19:53:37.420Z,9.87
2022-11-12T19:56:09.486Z,9.97
2022-11-12T19:58:37.275Z,9.93
2022-11-12T20:01:06.417Z,9.80
2022-11-12T20:03:34.588Z,9.68
2022-11-12T20:06:03.515Z,9.82
2022-11-12T20:08:31.814Z,9.75
2022-11-12T20:11:03.712Z,9.64
2022-11-12T20:13:34.595Z,9.58
2022-11-12T20:16:07.078Z,9.52
2022-11-12T20:18:34.956Z,9.52
2022-11-12T20:21:04.769Z,9.45
2022-11-12T20:23:33.863Z,9.44
2022-11-12T20:26:08.039Z,9.37
2022-11-12T20:28:36.688Z,9.33
2022-11-12T20:31:06.638Z,9.42
2022-11-12T20:33:39.358Z,9.46
2022-11-12T20:36:12.221Z,9.27
2022-11-12T20:38:41.251Z,9.24
2022-11-12T20:41:15.028Z,9.35
2022-11-12T20:43:43.063Z,9.35
2022-11-12T20:46:11.785Z,9.35
2022-11-12T20:48:43.233Z,9.32
2022-11-12T20:51:29.164Z,9.36
2022-11-12T20:54:00.217Z,9.36
2022-11-12T20:56:31.388Z,9.33
2022-11-12T20:58:59.989Z,9.24
2022-11-12T21:01:29.533Z,9.15
2022-11-12T21:03:58.211Z,9.15
2022-11-12T21:06:28.373Z,9.15
2022-11-12T21:08:58.989Z,9.01
2022-11-12T21:11:27.099Z,9.02
2022-11-12T21:13:56.555Z,9.13
2022-11-12T21:16:24.463Z,9.15
2022-11-12T21:18:52.256Z,9.15
2022-11-12T21:21:21.106Z,9.19
2022-11-12T21:23:50.334Z,9.20
2022-11-12T21:26:19.808Z,9.11
2022-11-12T21:28:49.407Z,8.91
2022-11-12T21:31:20.824Z,8.92
2022-11-12T21:33:51.112Z,8.94
2022-11-12T21:36:20.108Z,8.95
2022-11-12T21:38:48.305Z,8.90
2022-11-12T21:41:18.520Z,8.91
2022-11-12T21:43:46.691Z,8.93
2022-11-12T21:46:16.792Z,8.99
2022-11-12T21:48:50.990Z,8.98
2022-11-12T21:51:23.871Z,8.95
2022-11-12T21:53:55.363Z,8.82
2022-11-12T21:56:23.918Z,8.96
2022-11-12T21:58:53.898Z,9.06
2022-11-12T22:01:24.903Z,9.12
2022-11-12T22:03:56.014Z,9.19
2022-11-12T22:06:26.022Z,9.14
2022-11-12T22:08:54.596Z,9.04
2022-11-12T22:11:23.287Z,8.97
2022-11-12T22:13:51.036Z,8.84
2022-11-12T22:16:20.692Z,8.82
2022-11-12T22:18:50.237Z,8.77
2022-11-12T22:21:21.917Z,8.73
2022-11-12T22:23:49.720Z,8.69
2022-11-12T22:26:20.520Z,8.70
2022-11-12T22:28:48.582Z,8.77
2022-11-12T22:31:18.997Z,8.80
2022-11-12T22:33:46.790Z,8.77
2022-11-12T22:36:16.953Z,8.82
2022-11-12T22:38:47.599Z,8.89
2022-11-12T22:41:17.235Z,8.92
2022-11-12T22:43:47.714Z,8.84
2022-11-12T22:46:17.089Z,8.78
2022-11-12T22:48:45.710Z,8.84
2022-11-12T22:51:16.207Z,8.77
2022-11-12T22:53:44.401Z,8.75
2022-11-12T22:56:16.075Z,8.76
2022-11-12T22:58:45.953Z,8.73
2022-11-12T23:01:19.881Z,8.80
2022-11-12T23:03:47.683Z,8.81
2022-11-12T23:06:15.729Z,8.82
2022-11-12T23:08:43.632Z,8.79
2022-11-12T23:11:15.199Z,8.73
2022-11-12T23:13:43.292Z,8.78
2022-11-12T23:16:13.271Z,8.75
2022-11-12T23:18:41.280Z,8.75
2022-11-12T23:21:11.980Z,8.74
2022-11-12T23:23:40.122Z,8.64
2022-11-12T23:26:09.866Z,8.71
2022-11-12T23:28:39.472Z,8.70
2022-11-12T23:31:15.186Z,8.75
2022-11-12T23:33:46.000Z,8.95
2022-11-12T23:36:13.929Z,9.04
2022-11-12T23:38:41.985Z,9.09
2022-11-12T23:41:11.520Z,9.15
2022-11-12T23:43:40.571Z,9.13
2022-11-12T23:46:08.352Z,9.07
2022-11-12T23:48:36.041Z,9.00
2022-11-12T23:51:05.601Z,8.98
2022-11-12T23:53:35.275Z,9.00
2022-11-12T23:56:03.598Z,9.04
2022-11-12T23:58:32.215Z,9.09
